Time;durP1;ratioP1;P1;durP2;ratioP2;P2;SDS_P1;SDS_P2;PMS_P1;PMS_P2;Temp;Humidity;BMP_temperature;BMP_pressure;BME280_temperature;BME280_humidity;BME280_pressure;Samples;Min_cycle;Max_cycle;Signal;HPM_P1;HPM_P2
2021/10/16 00:02:13;;;;;;;5.23;3.00;;;13.10;99.90;;;;;;4913989;29;20459;-82
2021/10/16 00:04:42;;;;;;;3.33;3.00;;;13.10;99.90;;;;;;4912711;29;20473;-83
2021/10/16 00:07:10;;;;;;;4.60;3.40;;;13.10;99.90;;;;;;4912210;29;20998;-81
2021/10/16 00:09:38;;;;;;;3.97;3.57;;;13.10;99.90;;;;;;4910802;29;20810;-81
2021/10/16 00:12:08;;;;;;;4.27;3.33;;;13.00;99.90;;;;;;4911922;29;20515;-82
2021/10/16 00:14:36;;;;;;;4.17;3.17;;;13.00;99.90;;;;;;4910428;29;20459;-82
2021/10/16 00:17:04;;;;;;;5.83;3.70;;;13.00;99.90;;;;;;4906081;29;20970;-82
2021/10/16 00:19:32;;;;;;;3.90;3.40;;;12.90;99.90;;;;;;4916293;29;20455;-84
2021/10/16 00:22:01;;;;;;;3.93;2.97;;;12.90;99.90;;;;;;4910653;29;20446;-83
2021/10/16 00:24:30;;;;;;;6.47;3.90;;;12.90;99.90;;;;;;4911814;29;20537;-81
2021/10/16 00:26:58;;;;;;;9.13;2.83;;;12.90;99.90;;;;;;4913158;29;20497;-82
2021/10/16 00:29:28;;;;;;;4.07;3.50;;;12.90;99.90;;;;;;4915206;29;20466;-83
2021/10/16 00:31:57;;;;;;;5.20;3.40;;;12.90;99.90;;;;;;4912774;29;20484;-84
2021/10/16 00:34:25;;;;;;;4.07;3.20;;;12.80;99.90;;;;;;4922859;29;20525;-84
2021/10/16 00:36:53;;;;;;;5.63;3.83;;;12.90;99.90;;;;;;4915239;29;20471;-84
2021/10/16 00:39:21;;;;;;;6.50;4.33;;;12.80;99.90;;;;;;4912152;29;20462;-84
2021/10/16 00:41:50;;;;;;;5.83;3.93;;;12.80;99.90;;;;;;4915184;29;20442;-84
2021/10/16 00:44:22;;;;;;;8.17;4.87;;;12.90;99.90;;;;;;4911978;29;21105;-83
2021/10/16 00:46:53;;;;;;;4.83;3.60;;;12.90;99.90;;;;;;4914705;29;20474;-83
2021/10/16 00:49:21;;;;;;;5.83;3.20;;;12.90;99.90;;;;;;4912827;29;20466;-83
2021/10/16 00:51:50;;;;;;;3.17;2.67;;;12.90;99.90;;;;;;4910499;29;20447;-84
2021/10/16 00:54:21;;;;;;;5.83;3.47;;;13.00;99.90;;;;;;4915622;29;20540;-84
2021/10/16 00:56:50;;;;;;;4.90;3.40;;;13.00;99.90;;;;;;4913065;29;21088;-82
2021/10/16 00:59:20;;;;;;;4.40;2.73;;;13.00;99.90;;;;;;4910102;29;20452;-82
2021/10/16 01:01:48;;;;;;;4.30;3.77;;;13.00;99.90;;;;;;4911917;29;20461;-82
2021/10/16 01:04:18;;;;;;;5.63;3.03;;;13.00;99.90;;;;;;4912962;29;20459;-82
2021/10/16 01:06:46;;;;;;;10.23;3.70;;;13.10;99.90;;;;;;4905330;29;20489;-82
2021/10/16 01:09:16;;;;;;;7.13;3.10;;;13.10;99.90;;;;;;4910206;29;20477;-82
2021/10/16 01:11:49;;;;;;;5.03;3.13;;;13.10;99.90;;;;;;4914666;29;20465;-83
2021/10/16 01:14:19;;;;;;;4.40;3.57;;;13.10;99.90;;;;;;4913106;29;20463;-83
2021/10/16 01:16:51;;;;;;;4.43;3.20;;;13.20;99.90;;;;;;4914933;29;20485;-83
2021/10/16 01:19:22;;;;;;;4.90;3.00;;;13.10;99.90;;;;;;4911503;29;20459;-82
2021/10/16 01:21:55;;;;;;;5.27;3.87;;;13.20;99.90;;;;;;4912844;29;20454;-83
2021/10/16 01:24:23;;;;;;;3.60;2.97;;;13.20;99.90;;;;;;4915003;29;20464;-83
2021/10/16 01:26:52;;;;;;;4.17;2.80;;;13.30;99.90;;;;;;4913303;29;20481;-83
2021/10/16 01:29:24;;;;;;;5.47;3.67;;;13.30;99.90;;;;;;4913667;29;20466;-83
2021/10/16 01:31:53;;;;;;;4.70;3.10;;;13.30;99.90;;;;;;4912303;29;20503;-83
2021/10/16 01:34:21;;;;;;;3.63;3.33;;;13.30;99.90;;;;;;4902075;29;20467;-83
2021/10/16 01:36:51;;;;;;;3.67;3.37;;;13.30;99.90;;;;;;4923483;29;20483;-83
2021/10/16 01:39:21;;;;;;;4.37;3.30;;;13.30;99.90;;;;;;4913560;29;20553;-81
2021/10/16 01:41:50;;;;;;;3.87;3.57;;;13.30;99.90;;;;;;4914600;29;20538;-82
2021/10/16 01:44:18;;;;;;;4.20;3.40;;;13.30;99.90;;;;;;4912918;29;20461;-83
2021/10/16 01:46:46;;;;;;;3.70;3.40;;;13.30;99.90;;;;;;4911212;29;21116;-82
2021/10/16 01:49:16;;;;;;;5.00;3.93;;;13.30;99.90;;;;;;4912899;29;20470;-82
2021/10/16 01:51:46;;;;;;;3.60;2.70;;;13.40;99.90;;;;;;4913923;29;20477;-83
2021/10/16 01:54:16;;;;;;;4.90;3.60;;;13.30;99.90;;;;;;4912906;29;20448;-83
2021/10/16 01:56:44;;;;;;;4.07;2.70;;;13.30;99.90;;;;;;4918098;29;20482;-83
2021/10/16 01:59:17;;;;;;;3.50;3.13;;;13.30;99.90;;;;;;4912469;29;20462;-82
2021/10/16 02:02:05;;;;;;;7.00;2.67;;;13.30;99.90;;;;;;4913117;29;20530;-82
2021/10/16 02:04:33;;;;;;;4.40;3.10;;;13.20;99.90;;;;;;4911189;29;21014;-83
2021/10/16 02:07:02;;;;;;;6.03;3.57;;;13.30;99.90;;;;;;4909527;29;20486;-83
2021/10/16 02:09:31;;;;;;;3.83;3.00;;;13.30;99.90;;;;;;4909797;29;20476;-82
2021/10/16 02:11:59;;;;;;;4.93;3.37;;;13.30;99.90;;;;;;4912979;29;20872;-83
2021/10/16 02:14:27;;;;;;;2.93;2.63;;;13.30;99.90;;;;;;4912623;29;20467;-81
2021/10/16 02:16:56;;;;;;;5.37;4.20;;;13.30;99.90;;;;;;4914664;29;20530;-82
2021/10/16 02:19:24;;;;;;;5.13;2.87;;;13.30;99.90;;;;;;4917348;29;20464;-83
2021/10/16 02:21:52;;;;;;;3.93;3.33;;;13.30;99.90;;;;;;4915709;29;20822;-83
2021/10/16 02:24:20;;;;;;;3.20;2.63;;;13.30;99.90;;;;;;4913240;29;20462;-82
2021/10/16 02:26:50;;;;;;;5.50;4.07;;;13.40;99.90;;;;;;4916218;29;21252;-83
2021/10/16 02:29:18;;;;;;;3.47;3.03;;;13.40;99.90;;;;;;4916482;29;20456;-83
2021/10/16 02:31:46;;;;;;;3.93;3.60;;;13.40;99.90;;;;;;4916701;29;20462;-83
2021/10/16 02:34:14;;;;;;;4.37;3.27;;;13.40;99.90;;;;;;4917035;29;20462;-83
2021/10/16 02:36:43;;;;;;;3.77;2.80;;;13.40;99.90;;;;;;4915989;29;20577;-83
2021/10/16 02:39:11;;;;;;;4.23;3.27;;;13.30;99.90;;;;;;4916814;29;20477;-83
2021/10/16 02:41:39;;;;;;;5.43;3.40;;;13.30;99.90;;;;;;4916867;29;20462;-82
2021/10/16 02:44:09;;;;;;;4.57;3.50;;;13.40;99.90;;;;;;4914919;29;20475;-82
2021/10/16 02:46:37;;;;;;;3.73;2.63;;;13.40;99.90;;;;;;4915843;29;20991;-83
2021/10/16 02:49:05;;;;;;;5.20;4.53;;;13.50;99.90;;;;;;4916411;29;20487;-82
2021/10/16 02:51:33;;;;;;;5.53;3.57;;;13.50;99.90;;;;;;4917019;29;20817;-81
2021/10/16 02:54:01;;;;;;;4.37;3.07;;;13.50;99.90;;;;;;4911920;29;20471;-83
2021/10/16 02:56:29;;;;;;;5.67;3.50;;;13.50;99.90;;;;;;4920033;29;20479;-82
2021/10/16 02:58:57;;;;;;;4.07;3.77;;;13.50;99.90;;;;;;4916134;29;20457;-83
2021/10/16 03:01:27;;;;;;;3.43;3.13;;;13.50;99.90;;;;;;4915207;29;20467;-82
2021/10/16 03:03:56;;;;;;;8.70;3.53;;;13.50;99.90;;;;;;4913940;29;20506;-82
2021/10/16 03:06:24;;;;;;;4.00;2.33;;;13.70;99.90;;;;;;4916879;29;20476;-83
2021/10/16 03:08:52;;;;;;;3.80;2.40;;;13.50;99.90;;;;;;4915239;29;20501;-83
2021/10/16 03:11:20;;;;;;;4.00;3.50;;;13.50;99.90;;;;;;4916999;29;20461;-83
2021/10/16 03:13:48;;;;;;;3.27;2.67;;;13.50;99.90;;;;;;4913955;29;20455;-83
2021/10/16 03:16:17;;;;;;;4.00;2.40;;;13.50;99.90;;;;;;4915207;29;20565;-83
2021/10/16 03:18:48;;;;;;;3.83;2.97;;;13.40;99.90;;;;;;4915772;29;20459;-83
2021/10/16 03:21:16;;;;;;;3.73;3.03;;;13.40;99.90;;;;;;4916030;29;20480;-83
2021/10/16 03:23:44;;;;;;;3.80;3.10;;;13.40;99.90;;;;;;4914550;29;20461;-84
2021/10/16 03:26:12;;;;;;;6.27;3.70;;;13.40;99.90;;;;;;4912499;29;20478;-82
2021/10/16 03:28:41;;;;;;;4.80;3.43;;;13.40;99.90;;;;;;4916758;29;20493;-83
2021/10/16 03:31:09;;;;;;;3.70;2.63;;;13.40;99.90;;;;;;4913692;29;20466;-83
2021/10/16 03:33:37;;;;;;;5.33;2.97;;;13.40;99.90;;;;;;4914196;29;20461;-84
2021/10/16 03:36:07;;;;;;;4.43;3.40;;;13.40;99.90;;;;;;4914449;29;20485;-83
2021/10/16 03:38:35;;;;;;;8.07;3.93;;;13.40;99.90;;;;;;4910007;29;20460;-83
2021/10/16 03:41:03;;;;;;;4.50;3.40;;;13.40;99.90;;;;;;4918430;29;20461;-84
2021/10/16 03:43:31;;;;;;;4.90;3.30;;;13.40;99.90;;;;;;4914363;29;20470;-82
2021/10/16 03:45:59;;;;;;;5.53;3.40;;;13.40;99.90;;;;;;4915051;29;20498;-83
2021/10/16 03:48:28;;;;;;;4.17;3.30;;;13.40;99.90;;;;;;4915295;29;20496;-83
2021/10/16 03:50:56;;;;;;;3.90;3.60;;;13.40;99.90;;;;;;4916194;29;20523;-84
2021/10/16 03:53:25;;;;;;;3.63;3.33;;;13.40;99.90;;;;;;4915546;29;20466;-83
2021/10/16 03:55:54;;;;;;;5.20;2.93;;;13.40;99.90;;;;;;4915530;29;20471;-82
2021/10/16 03:58:22;;;;;;;4.03;3.17;;;13.40;99.90;;;;;;4913641;29;20478;-83
2021/10/16 04:00:52;;;;;;;4.73;4.10;;;13.40;99.90;;;;;;4915180;29;20467;-83
2021/10/16 04:03:20;;;;;;;4.13;3.50;;;13.40;99.90;;;;;;4920551;29;20475;-82
2021/10/16 04:05:49;;;;;;;4.03;3.57;;;13.40;99.90;;;;;;4914891;29;21008;-83
2021/10/16 04:08:17;;;;;;;5.43;3.30;;;13.40;99.90;;;;;;4915296;29;20489;-83
2021/10/16 04:10:47;;;;;;;4.67;3.97;;;13.40;99.90;;;;;;4916628;29;20472;-85
2021/10/16 04:13:15;;;;;;;3.70;3.30;;;13.30;99.90;;;;;;4917648;29;20459;-83
2021/10/16 04:15:44;;;;;;;4.23;3.67;;;13.30;99.90;;;;;;4916405;29;20481;-84
2021/10/16 04:18:13;;;;;;;4.93;3.80;;;13.40;99.90;;;;;;4917603;29;20535;-82
2021/10/16 04:20:41;;;;;;;3.80;3.03;;;13.40;99.90;;;;;;4912624;29;20455;-83
2021/10/16 04:23:09;;;;;;;4.80;2.80;;;13.40;99.90;;;;;;4911633;29;20478;-83
2021/10/16 04:25:37;;;;;;;3.97;3.47;;;13.50;99.90;;;;;;4916781;29;21053;-82
2021/10/16 04:28:07;;;;;;;4.80;3.37;;;13.40;99.90;;;;;;4914546;29;20463;-82
2021/10/16 04:30:35;;;;;;;4.90;3.70;;;13.50;99.90;;;;;;4914020;29;20462;-83
2021/10/16 04:33:03;;;;;;;8.20;4.03;;;13.50;99.90;;;;;;4914828;29;20471;-81
2021/10/16 04:35:32;;;;;;;4.57;4.00;;;13.50;99.90;;;;;;4914087;29;20995;-81
2021/10/16 04:38:00;;;;;;;4.23;3.77;;;13.50;99.90;;;;;;4913695;29;20818;-82
2021/10/16 04:40:28;;;;;;;4.03;3.50;;;13.50;99.90;;;;;;4913669;29;20465;-82
2021/10/16 04:43:01;;;;;;;4.53;3.87;;;13.50;99.90;;;;;;4912425;29;20468;-82
2021/10/16 04:45:30;;;;;;;6.90;3.17;;;13.50;99.90;;;;;;4910416;29;20495;-82
2021/10/16 04:47:59;;;;;;;3.80;3.30;;;13.50;99.90;;;;;;4912921;29;20547;-84
2021/10/16 04:50:27;;;;;;;4.20;3.00;;;13.50;99.90;;;;;;4915273;29;20472;-82
2021/10/16 04:52:55;;;;;;;3.57;3.27;;;13.50;99.90;;;;;;4914280;29;20459;-82
2021/10/16 04:55:24;;;;;;;5.77;3.20;;;13.50;99.90;;;;;;4912975;29;20623;-82
2021/10/16 04:57:52;;;;;;;5.50;3.80;;;13.50;99.90;;;;;;4911568;29;20559;-83
2021/10/16 05:00:20;;;;;;;10.13;3.70;;;13.50;99.90;;;;;;4914347;29;20456;-83
2021/10/16 05:02:50;;;;;;;6.43;5.00;;;13.50;99.90;;;;;;4914505;29;20509;-83
2021/10/16 05:05:18;;;;;;;9.13;6.53;;;13.50;99.90;;;;;;4911396;29;21242;-83
2021/10/16 05:07:46;;;;;;;12.90;5.30;;;13.50;99.90;;;;;;4914350;29;20898;-83
2021/10/16 05:10:15;;;;;;;18.83;8.33;;;13.50;99.90;;;;;;4911813;29;20553;-84
2021/10/16 05:12:43;;;;;;;21.57;8.83;;;13.40;99.90;;;;;;4914314;29;20460;-84
2021/10/16 05:15:11;;;;;;;22.30;10.60;;;13.40;99.90;;;;;;4913139;29;20488;-83
2021/10/16 05:17:39;;;;;;;20.17;10.50;;;13.40;99.90;;;;;;4913271;29;20473;-83
2021/10/16 05:20:11;;;;;;;20.60;11.53;;;13.40;99.90;;;;;;4913867;29;20460;-82
2021/10/16 05:22:39;;;;;;;20.43;10.17;;;13.50;99.90;;;;;;4914413;29;20751;-83
2021/10/16 05:25:07;;;;;;;22.30;11.80;;;13.50;99.90;;;;;;4911369;29;20480;-84
2021/10/16 05:27:35;;;;;;;18.70;10.90;;;13.50;99.90;;;;;;4911034;29;20455;-83
2021/10/16 05:30:04;;;;;;;18.20;8.60;;;13.50;99.90;;;;;;4912715;29;20478;-83
2021/10/16 05:32:33;;;;;;;17.63;8.17;;;13.50;99.90;;;;;;4913714;29;20456;-84
2021/10/16 05:35:01;;;;;;;17.50;8.90;;;13.50;99.90;;;;;;4912806;29;20501;-83
2021/10/16 05:37:31;;;;;;;19.37;7.97;;;13.50;99.90;;;;;;4917617;29;20466;-83
2021/10/16 05:39:59;;;;;;;20.77;7.03;;;13.50;99.90;;;;;;4911737;29;20463;-83
2021/10/16 05:42:27;;;;;;;22.17;9.83;;;13.50;99.90;;;;;;4913034;29;20471;-83
2021/10/16 05:44:55;;;;;;;18.50;9.83;;;13.60;99.90;;;;;;4912980;29;20471;-83
2021/10/16 05:47:23;;;;;;;18.57;8.40;;;13.60;99.90;;;;;;4913638;29;20479;-84
2021/10/16 05:49:53;;;;;;;18.03;8.83;;;13.50;99.90;;;;;;4918246;29;20597;-84
2021/10/16 05:52:21;;;;;;;18.50;9.27;;;13.50;99.90;;;;;;4904719;29;20491;-82
2021/10/16 05:54:51;;;;;;;19.47;9.27;;;13.50;99.90;;;;;;4912538;29;20521;-84
2021/10/16 05:57:19;;;;;;;20.90;9.90;;;13.50;99.90;;;;;;4913380;29;20869;-84
2021/10/16 05:59:47;;;;;;;16.73;8.40;;;13.50;99.90;;;;;;4921240;29;20453;-84
2021/10/16 06:02:15;;;;;;;15.20;8.07;;;13.50;99.90;;;;;;4912105;29;20458;-84
2021/10/16 06:04:43;;;;;;;12.00;6.57;;;13.50;99.90;;;;;;4915568;29;20479;-85
2021/10/16 06:07:11;;;;;;;10.83;6.00;;;13.50;99.90;;;;;;4913574;29;20994;-81
2021/10/16 06:09:40;;;;;;;9.83;5.70;;;13.50;99.90;;;;;;4911167;29;20478;-84
2021/10/16 06:12:09;;;;;;;9.47;6.40;;;13.50;99.90;;;;;;4911625;29;20462;-83
2021/10/16 06:14:38;;;;;;;11.40;6.50;;;13.50;99.90;;;;;;4912242;29;20459;-83
2021/10/16 06:17:06;;;;;;;9.83;5.43;;;13.50;99.90;;;;;;4914354;29;20457;-81
2021/10/16 06:19:34;;;;;;;14.47;6.07;;;13.50;99.90;;;;;;4916599;29;20462;-80
2021/10/16 06:22:02;;;;;;;13.88;7.30;;;13.50;99.90;;;;;;4915822;29;20510;-83
2021/10/16 06:24:30;;;;;;;10.60;6.47;;;13.50;99.90;;;;;;4910641;29;20203;-82
2021/10/16 06:26:58;;;;;;;16.60;7.37;;;13.60;99.90;;;;;;4908633;29;21050;-80
2021/10/16 06:29:28;;;;;;;18.10;7.67;;;13.60;99.90;;;;;;4916851;29;20554;-80
2021/10/16 06:31:56;;;;;;;20.87;8.63;;;13.60;99.90;;;;;;4917315;29;20472;-79
2021/10/16 06:34:24;;;;;;;17.50;9.93;;;13.70;99.90;;;;;;4913441;29;20459;-83
2021/10/16 06:36:53;;;;;;;18.77;10.87;;;13.60;99.90;;;;;;4911983;29;20485;-82
2021/10/16 06:39:21;;;;;;;24.37;9.80;;;13.50;99.90;;;;;;4911669;29;20463;-82
2021/10/16 06:41:49;;;;;;;26.63;11.20;;;13.50;99.90;;;;;;4914079;29;21142;-82
2021/10/16 06:44:17;;;;;;;28.13;12.07;;;13.50;99.90;;;;;;4916643;29;20455;-83
2021/10/16 06:46:47;;;;;;;29.03;10.63;;;13.50;99.90;;;;;;4912141;29;21129;-83
2021/10/16 06:49:15;;;;;;;24.17;11.13;;;13.50;99.90;;;;;;4911909;29;20517;-83
2021/10/16 06:51:43;;;;;;;34.17;12.57;;;13.50;99.90;;;;;;4914114;29;20464;-84
2021/10/16 06:54:12;;;;;;;30.80;11.60;;;13.50;99.90;;;;;;4909412;29;20469;-82
2021/10/16 06:56:45;;;;;;;25.17;12.23;;;13.60;99.90;;;;;;4912070;29;20490;-82
2021/10/16 06:59:13;;;;;;;28.80;12.10;;;13.60;1.00;;;;;;4911679;29;20468;-84
2021/10/16 07:01:41;;;;;;;34.17;15.03;;;13.60;1.00;;;;;;4912022;29;20460;-83
2021/10/16 07:04:11;;;;;;;40.83;16.10;;;13.60;1.00;;;;;;4911360;29;20517;-85
2021/10/16 07:06:39;;;;;;;28.80;13.47;;;13.60;1.00;;;;;;4910833;29;20487;-83
2021/10/16 07:09:08;;;;;;;30.07;15.20;;;13.60;1.00;;;;;;4917734;29;20547;-83
2021/10/16 07:11:36;;;;;;;28.87;11.57;;;13.60;1.00;;;;;;4912395;29;21013;-84
2021/10/16 07:14:05;;;;;;;26.83;11.87;;;13.60;1.00;;;;;;4917305;29;20458;-83
2021/10/16 07:16:35;;;;;;;26.40;11.80;;;13.60;1.00;;;;;;4916576;29;21010;-80
2021/10/16 07:19:03;;;;;;;25.20;11.40;;;13.60;1.00;;;;;;4914933;29;20469;-81
2021/10/16 07:21:33;;;;;;;23.93;12.03;;;13.60;1.00;;;;;;4910950;29;20457;-81
2021/10/16 07:24:01;;;;;;;26.70;11.37;;;13.60;1.00;;;;;;4915404;29;20467;-84
2021/10/16 07:26:30;;;;;;;29.20;11.80;;;13.50;1.00;;;;;;4915025;29;20998;-80
2021/10/16 07:28:58;;;;;;;23.20;11.43;;;13.30;1.00;;;;;;4906988;29;20679;-80
2021/10/16 07:31:28;;;;;;;22.17;9.90;;;13.40;1.00;;;;;;4909213;29;20491;-81
2021/10/16 07:33:59;;;;;;;17.97;9.80;;;13.40;1.00;;;;;;4915602;29;21029;-81
2021/10/16 07:36:34;;;;;;;26.60;11.63;;;13.50;1.00;;;;;;4916359;29;20490;-80
2021/10/16 07:39:05;;;;;;;21.90;11.10;;;13.60;1.00;;;;;;4916319;29;20978;-81
2021/10/16 07:41:34;;;;;;;25.73;10.00;;;13.60;1.00;;;;;;4915850;29;20462;-83
2021/10/16 07:44:02;;;;;;;24.20;10.57;;;13.70;1.00;;;;;;4907594;29;20447;-80
2021/10/16 07:46:30;;;;;;;24.87;11.13;;;13.70;1.00;;;;;;4910334;29;20924;-81
2021/10/16 07:48:59;;;;;;;21.33;9.40;;;13.70;1.00;;;;;;4909490;29;20464;-80
2021/10/16 07:51:27;;;;;;;21.53;9.80;;;13.60;1.00;;;;;;4915374;29;20529;-80
2021/10/16 07:53:55;;;;;;;20.97;10.83;;;13.70;1.00;;;;;;4912639;29;20474;-80
2021/10/16 07:56:25;;;;;;;22.93;10.70;;;13.70;1.00;;;;;;4910323;29;21284;-80
2021/10/16 07:58:53;;;;;;;26.60;10.10;;;13.70;1.00;;;;;;4912486;29;20462;-79
2021/10/16 08:01:21;;;;;;;22.90;11.30;;;13.70;1.00;;;;;;4917065;29;20455;-80
2021/10/16 08:03:50;;;;;;;27.57;9.90;;;13.70;1.00;;;;;;4915055;29;20491;-80
2021/10/16 08:06:18;;;;;;;19.80;9.67;;;13.70;1.00;;;;;;4913464;29;20487;-80
2021/10/16 08:08:46;;;;;;;23.90;11.20;;;13.70;1.00;;;;;;4905224;29;20449;-81
2021/10/16 08:11:14;;;;;;;24.83;10.00;;;13.80;1.00;;;;;;4904321;29;21145;-80
2021/10/16 08:13:44;;;;;;;28.90;11.53;;;13.70;1.00;;;;;;4913047;29;20465;-80
2021/10/16 08:16:12;;;;;;;22.50;9.73;;;13.80;1.00;;;;;;4909080;29;20480;-80
2021/10/16 08:18:40;;;;;;;26.47;10.03;;;13.80;1.00;;;;;;4911404;29;20481;-80
2021/10/16 08:21:08;;;;;;;25.60;9.97;;;13.80;1.00;;;;;;4917195;29;20466;-80
2021/10/16 08:23:37;;;;;;;26.63;10.43;;;13.80;1.00;;;;;;4912855;29;20507;-79
2021/10/16 08:26:05;;;;;;;30.03;11.60;;;13.90;1.00;;;;;;4912720;29;20470;-79
2021/10/16 08:28:33;;;;;;;20.20;10.27;;;13.80;1.00;;;;;;4910548;29;20477;-80
2021/10/16 08:31:04;;;;;;;30.80;10.27;;;13.90;1.00;;;;;;4913418;29;20511;-79
2021/10/16 08:33:34;;;;;;;24.73;11.07;;;13.90;1.00;;;;;;4909971;29;20475;-81
2021/10/16 08:36:02;;;;;;;24.70;12.50;;;13.90;1.00;;;;;;4909829;29;20496;-80
2021/10/16 08:38:31;;;;;;;21.13;10.43;;;13.90;1.00;;;;;;4906616;29;20467;-80
2021/10/16 08:40:59;;;;;;;26.33;10.40;;;13.90;1.00;;;;;;4913334;29;20468;-81
2021/10/16 08:43:27;;;;;;;32.20;10.90;;;13.90;1.00;;;;;;4911534;29;20462;-80
2021/10/16 08:46:00;;;;;;;25.87;11.20;;;13.90;1.00;;;;;;4907673;29;20482;-79
2021/10/16 08:48:30;;;;;;;23.00;10.43;;;13.90;1.00;;;;;;4914508;29;20904;-80
2021/10/16 08:51:00;;;;;;;18.67;9.17;;;13.90;1.00;;;;;;4907684;29;21011;-81
2021/10/16 08:53:29;;;;;;;22.30;9.60;;;13.90;1.00;;;;;;4908111;29;20518;-80
2021/10/16 08:56:04;;;;;;;22.30;9.40;;;13.90;1.00;;;;;;4911053;29;20475;-81
2021/10/16 08:58:33;;;;;;;24.67;9.90;;;13.90;1.00;;;;;;4902177;29;21123;-82
2021/10/16 09:01:03;;;;;;;18.60;8.77;;;13.90;1.00;;;;;;4906174;29;20472;-82
2021/10/16 09:03:35;;;;;;;19.93;8.70;;;13.90;1.00;;;;;;4909295;29;20460;-82
2021/10/16 09:06:06;;;;;;;22.80;10.60;;;13.90;1.00;;;;;;4908696;29;20549;-81
2021/10/16 09:08:36;;;;;;;22.43;10.13;;;13.90;1.00;;;;;;4908117;29;20460;-81
2021/10/16 09:11:12;;;;;;;14.10;8.07;;;13.90;1.00;;;;;;4912128;29;20485;-80
2021/10/16 09:13:45;;;;;;;21.27;10.50;;;13.90;1.00;;;;;;4905450;29;20944;-79
2021/10/16 09:16:25;;;;;;;19.67;9.43;;;14.00;1.00;;;;;;4912444;29;20478;-82
2021/10/16 09:19:08;;;;;;;15.67;8.37;;;14.00;1.00;;;;;;4912346;29;20470;-81
2021/10/16 09:21:38;;;;;;;16.50;9.07;;;14.00;1.00;;;;;;4916464;29;20457;-82
2021/10/16 09:24:12;;;;;;;20.47;8.50;;;14.10;1.00;;;;;;4912603;29;20476;-81
2021/10/16 09:26:43;;;;;;;15.70;8.20;;;14.00;1.00;;;;;;4906455;29;22318;-80
2021/10/16 09:29:13;;;;;;;21.70;8.50;;;14.10;1.00;;;;;;4908167;29;20777;-81
2021/10/16 09:31:45;;;;;;;15.07;7.80;;;14.10;1.00;;;;;;4913036;29;20484;-81
2021/10/16 09:34:23;;;;;;;17.87;8.07;;;14.10;1.00;;;;;;4909416;29;20468;-80
2021/10/16 09:36:51;;;;;;;15.90;9.30;;;14.10;1.00;;;;;;4905992;29;20499;-80
2021/10/16 09:39:20;;;;;;;17.23;8.77;;;14.10;1.00;;;;;;4912519;29;20486;-80
2021/10/16 09:41:49;;;;;;;14.30;6.83;;;14.10;1.00;;;;;;4911329;29;21169;-81
2021/10/16 09:44:22;;;;;;;16.00;7.28;;;14.10;1.00;;;;;;4909241;29;20458;-80
2021/10/16 09:47:19;;;;;;;9.20;6.30;;;14.10;1.00;;;;;;4911592;29;20298;-80
2021/10/16 09:49:50;;;;;;;71.53;28.13;;;14.20;1.00;;;;;;4887002;29;20468;-83
2021/10/16 09:52:20;;;;;;;28.53;15.77;;;14.20;1.00;;;;;;4912854;29;20488;-81
2021/10/16 09:54:50;;;;;;;18.87;9.23;;;14.20;1.00;;;;;;4909470;29;20536;-82
2021/10/16 09:57:20;;;;;;;12.93;7.67;;;14.20;1.00;;;;;;4913100;29;20803;-82
2021/10/16 09:59:48;;;;;;;13.17;8.73;;;14.20;1.00;;;;;;4913723;29;20871;-82
2021/10/16 10:02:17;;;;;;;12.90;7.70;;;14.30;1.00;;;;;;4914009;29;20475;-82
2021/10/16 10:04:48;;;;;;;18.63;8.60;;;14.30;1.00;;;;;;4910962;29;20256;-82
2021/10/16 10:07:20;;;;;;;13.83;7.27;;;14.30;1.00;;;;;;4910745;29;20463;-81
2021/10/16 10:09:48;;;;;;;14.70;8.10;;;14.30;1.00;;;;;;4909970;29;20473;-81
2021/10/16 10:12:17;;;;;;;14.37;9.07;;;14.30;1.00;;;;;;4912179;29;20498;-83
2021/10/16 10:14:47;;;;;;;15.43;8.20;;;14.40;1.00;;;;;;4905287;29;20491;-83
2021/10/16 10:17:19;;;;;;;14.10;8.73;;;14.40;1.00;;;;;;4911301;29;20470;-82
2021/10/16 10:19:54;;;;;;;16.27;8.33;;;14.40;1.00;;;;;;4913052;29;20460;-82
2021/10/16 10:22:23;;;;;;;16.00;8.33;;;14.50;1.00;;;;;;4912594;29;20971;-82
2021/10/16 10:24:54;;;;;;;12.77;7.90;;;14.50;1.00;;;;;;4916222;29;20500;-82
2021/10/16 10:27:26;;;;;;;15.77;8.53;;;14.50;1.00;;;;;;4908482;29;20459;-81
2021/10/16 10:29:55;;;;;;;20.07;8.60;;;14.50;99.90;;;;;;4913296;29;20462;-81
2021/10/16 10:32:25;;;;;;;19.33;10.57;;;14.50;1.00;;;;;;4912443;29;20492;-82
2021/10/16 10:34:58;;;;;;;19.20;9.77;;;14.50;1.00;;;;;;4910623;29;20546;-82
2021/10/16 10:37:32;;;;;;;19.33;9.63;;;14.50;1.00;;;;;;4909095;29;20515;-81
2021/10/16 10:40:00;;;;;;;19.83;11.70;;;14.50;1.00;;;;;;4915799;29;20888;-79
2021/10/16 10:42:51;;;;;;;18.00;10.30;;;14.50;1.00;;;;;;4915560;29;20456;-80
2021/10/16 10:45:43;;;;;;;17.90;9.93;;;14.50;1.00;;;;;;4908350;29;20484;-78
2021/10/16 10:48:17;;;;;;;18.33;10.10;;;14.60;1.00;;;;;;4909362;29;20465;-73
2021/10/16 10:50:52;;;;;;;22.37;13.43;;;14.60;1.00;;;;;;4911825;29;20457;-74
2021/10/16 10:53:30;;;;;;;21.00;12.70;;;14.60;1.00;;;;;;4915304;29;20500;-73
2021/10/16 10:56:00;;;;;;;21.83;11.53;;;14.70;1.00;;;;;;4915418;29;20978;-74
2021/10/16 10:59:08;;;;;;;20.17;13.20;;;14.70;99.90;;;;;;4912327;29;20463;-81
2021/10/16 11:01:51;;;;;;;21.40;10.83;;;14.70;99.90;;;;;;4914700;29;20489;-80
2021/10/16 11:04:42;;;;;;;19.30;11.57;;;14.70;99.90;;;;;;4918193;29;20463;-79
2021/10/16 11:07:14;;;;;;;20.27;10.07;;;14.70;99.90;;;;;;4912721;29;20467;-79
2021/10/16 11:09:43;;;;;;;17.33;10.53;;;14.80;99.90;;;;;;4917132;29;20472;-81
2021/10/16 11:12:14;;;;;;;14.60;9.43;;;14.80;99.90;;;;;;4915764;29;20484;-78
2021/10/16 11:14:44;;;;;;;19.83;10.57;;;14.80;99.90;;;;;;4913468;29;20491;-79
2021/10/16 11:17:14;;;;;;;12.83;8.70;;;14.90;99.90;;;;;;4907373;29;20514;-80
2021/10/16 11:19:52;;;;;;;14.40;9.80;;;14.90;99.90;;;;;;4917891;29;20457;-80
2021/10/16 11:22:23;;;;;;;14.73;7.77;;;14.90;99.90;;;;;;4909902;29;20489;-79
2021/10/16 11:25:00;;;;;;;12.90;7.63;;;14.80;99.90;;;;;;4913691;29;20526;-79
2021/10/16 11:27:28;;;;;;;13.45;8.30;;;14.90;99.90;;;;;;4911891;29;20970;-78
2021/10/16 11:29:57;;;;;;;14.07;8.93;;;15.00;99.90;;;;;;4915623;29;20711;-81
2021/10/16 11:32:26;;;;;;;17.60;9.13;;;15.00;99.90;;;;;;4915044;29;20483;-80
2021/10/16 11:35:03;;;;;;;17.20;10.70;;;15.10;99.90;;;;;;4912311;29;20500;-79
2021/10/16 11:37:43;;;;;;;12.87;8.53;;;15.10;99.90;;;;;;4908342;29;20461;-79
2021/10/16 11:40:16;;;;;;;13.87;9.27;;;15.10;99.90;;;;;;4908455;29;20469;-79
2021/10/16 11:42:47;;;;;;;14.60;9.07;;;15.20;99.90;;;;;;4910371;29;20582;-81
2021/10/16 11:45:17;;;;;;;14.83;9.10;;;15.20;99.90;;;;;;4912881;29;20478;-79
2021/10/16 11:47:49;;;;;;;14.30;9.00;;;15.20;99.90;;;;;;4913659;29;20473;-81
2021/10/16 11:50:19;;;;;;;9.73;7.23;;;15.20;99.90;;;;;;4912792;29;20462;-80
2021/10/16 11:52:51;;;;;;;15.50;8.90;;;15.20;99.90;;;;;;4915066;29;20485;-81
2021/10/16 11:55:22;;;;;;;12.83;8.93;;;15.20;99.90;;;;;;4910407;29;20545;-80
2021/10/16 11:57:50;;;;;;;10.30;7.77;;;15.10;99.90;;;;;;4910773;29;20459;-79
2021/10/16 12:00:25;;;;;;;14.23;8.20;;;15.20;99.90;;;;;;4916915;29;20547;-80
2021/10/16 12:02:55;;;;;;;12.43;7.30;;;15.10;99.90;;;;;;4915416;29;20460;-79
2021/10/16 12:05:25;;;;;;;10.97;7.10;;;15.10;99.90;;;;;;4912531;29;20565;-81
2021/10/16 12:07:56;;;;;;;11.63;8.73;;;14.90;99.90;;;;;;4912550;29;20477;-82
2021/10/16 12:10:29;;;;;;;13.97;8.67;;;14.90;99.90;;;;;;4911547;29;20469;-80
2021/10/16 12:13:13;;;;;;;16.10;7.90;;;14.80;99.90;;;;;;4910761;29;20483;-81
2021/10/16 12:15:44;;;;;;;11.00;7.80;;;14.80;99.90;;;;;;4913981;29;20484;-80
2021/10/16 12:18:21;;;;;;;11.20;8.50;;;14.80;99.90;;;;;;4919930;29;20468;-80
2021/10/16 12:20:52;;;;;;;11.40;7.53;;;14.80;99.90;;;;;;4924498;29;20453;-79
2021/10/16 12:23:24;;;;;;;11.37;7.53;;;14.90;99.90;;;;;;4922845;29;20474;-80
2021/10/16 12:25:54;;;;;;;14.90;9.33;;;14.90;99.90;;;;;;4922989;29;20488;-84
2021/10/16 12:28:24;;;;;;;11.43;7.57;;;15.00;99.90;;;;;;4917771;29;20464;-80
2021/10/16 12:31:08;;;;;;;11.30;6.40;;;15.10;99.90;;;;;;4913823;29;20886;-80
2021/10/16 12:34:16;;;;;;;13.73;7.30;;;15.00;99.90;;;;;;4923092;29;20532;-79
2021/10/16 12:36:51;;;;;;;12.07;7.10;;;15.20;99.90;;;;;;4860224;29;20506;-82
2021/10/16 12:39:30;;;;;;;14.82;8.80;;;15.20;99.90;;;;;;4862165;29;20475;-81
2021/10/16 12:42:10;;;;;;;14.63;9.83;;;15.20;99.90;;;;;;4893720;29;20587;-79
2021/10/16 12:44:39;;;;;;;11.30;7.43;;;15.20;99.90;;;;;;4913890;29;20459;-81
2021/10/16 12:47:09;;;;;;;13.83;7.67;;;15.30;99.90;;;;;;4908218;29;21016;-81
2021/10/16 12:49:40;;;;;;;12.30;7.33;;;15.40;99.90;;;;;;4912123;29;20482;-82
2021/10/16 12:52:28;;;;;;;11.77;8.03;;;15.60;99.90;;;;;;4910799;29;22486;-82
2021/10/16 12:54:59;;;;;;;12.10;7.00;;;15.70;99.90;;;;;;4915428;29;20478;-81
2021/10/16 12:57:29;;;;;;;9.87;8.13;;;15.80;99.90;;;;;;4930733;29;20463;-82